Time;durP1;ratioP1;P1;durP2;ratioP2;P2;SDS_P1;SDS_P2;PMS_P1;PMS_P2;Temp;Humidity;BMP_temperature;BMP_pressure;BME280_temperature;BME280_humidity;BME280_pressure;Samples;Min_cycle;Max_cycle;Signal;HPM_P1;HPM_P2
2021/01/08 00:00:29;;;;;;;29.80;19.30;;;;;;;;;;6075614;29;20076;-69
2021/01/08 00:03:30;;;;;;;31.67;19.17;;;;;;;;;;6071436;29;20076;-73
2021/01/08 00:06:32;;;;;;;29.60;19.05;;;;;;;;;;6077557;29;20135;-69
2021/01/08 00:09:33;;;;;;;28.48;19.10;;;;;;;;;;6066713;29;20172;-69
2021/01/08 00:12:35;;;;;;;29.58;19.38;;;;;;;;;;6069200;29;20053;-69
2021/01/08 00:15:37;;;;;;;28.52;18.80;;;;;;;;;;6069056;29;20049;-69
2021/01/08 00:18:38;;;;;;;28.65;17.75;;;;;;;;;;6064696;29;20135;-68
2021/01/08 00:21:42;;;;;;;30.45;19.08;;;;;;;;;;6066040;29;21764;-71
2021/01/08 00:24:43;;;;;;;29.33;18.63;;;;;;;;;;6064873;29;20080;-69
2021/01/08 00:27:44;;;;;;;27.40;17.45;;;;;;;;;;6073059;29;20136;-68
2021/01/08 00:30:46;;;;;;;25.85;18.15;;;;;;;;;;6072162;29;20044;-68
2021/01/08 00:33:47;;;;;;;23.73;15.35;;;;;;;;;;6069159;29;20045;-70
2021/01/08 00:36:49;;;;;;;23.25;14.95;;;;;;;;;;6073466;29;20434;-70
2021/01/08 00:39:50;;;;;;;22.65;13.82;;;;;;;;;;6078828;29;20048;-68
2021/01/08 00:42:51;;;;;;;21.48;14.73;;;;;;;;;;6074352;29;20497;-75
2021/01/08 00:45:53;;;;;;;22.83;14.60;;;;;;;;;;6069987;29;20151;-68
2021/01/08 00:48:54;;;;;;;24.48;14.32;;;;;;;;;;6069305;29;20040;-68
2021/01/08 00:51:55;;;;;;;21.23;14.50;;;;;;;;;;6068358;29;20452;-68
2021/01/08 00:54:56;;;;;;;21.73;13.63;;;;;;;;;;6069540;29;20148;-69
2021/01/08 00:57:57;;;;;;;21.55;13.98;;;;;;;;;;6070784;29;20195;-69
2021/01/08 01:00:59;;;;;;;22.42;13.48;;;;;;;;;;6067736;29;20147;-69
2021/01/08 01:04:00;;;;;;;20.15;12.20;;;;;;;;;;6067809;29;20048;-67
2021/01/08 01:07:01;;;;;;;29.77;17.83;;;;;;;;;;6067700;29;20128;-69
2021/01/08 01:10:03;;;;;;;22.38;14.40;;;;;;;;;;6066812;29;20065;-70
2021/01/08 01:13:04;;;;;;;17.13;11.60;;;;;;;;;;6066660;29;20052;-69
2021/01/08 01:16:06;;;;;;;29.13;17.48;;;;;;;;;;6067148;29;20551;-67
2021/01/08 01:19:07;;;;;;;18.67;12.77;;;;;;;;;;6062430;29;20084;-71
2021/01/08 01:22:08;;;;;;;18.23;12.07;;;;;;;;;;6074629;29;20107;-68
2021/01/08 01:25:10;;;;;;;20.55;12.48;;;;;;;;;;6073765;29;20056;-68
2021/01/08 01:28:11;;;;;;;25.08;14.10;;;;;;;;;;6067226;29;20068;-67
2021/01/08 01:31:13;;;;;;;21.10;14.48;;;;;;;;;;6071835;29;20056;-69
2021/01/08 01:34:14;;;;;;;21.65;13.48;;;;;;;;;;6068658;29;20049;-69
2021/01/08 01:37:15;;;;;;;24.67;15.55;;;;;;;;;;6054083;29;20142;-69
2021/01/08 01:40:16;;;;;;;22.48;14.50;;;;;;;;;;6068041;29;20131;-70
2021/01/08 01:43:17;;;;;;;24.65;14.48;;;;;;;;;;6040381;29;20057;-68
2021/01/08 01:46:21;;;;;;;22.92;14.98;;;;;;;;;;6067551;29;20056;-73
2021/01/08 01:49:22;;;;;;;25.75;15.23;;;;;;;;;;6069558;29;20057;-67
2021/01/08 01:52:23;;;;;;;21.33;14.27;;;;;;;;;;6071376;29;20477;-67
2021/01/08 01:55:25;;;;;;;22.05;14.80;;;;;;;;;;6068330;29;20441;-69
2021/01/08 01:58:26;;;;;;;22.95;14.48;;;;;;;;;;6070980;29;20048;-67
2021/01/08 02:01:28;;;;;;;24.63;14.63;;;;;;;;;;6074987;29;20156;-68
2021/01/08 02:04:29;;;;;;;20.90;14.90;;;;;;;;;;6071737;29;20048;-67
2021/01/08 02:07:33;;;;;;;21.45;13.98;;;;;;;;;;6071071;29;20052;-68
2021/01/08 02:10:37;;;;;;;20.08;14.02;;;;;;;;;;6070625;29;20108;-67
2021/01/08 02:13:41;;;;;;;20.38;13.82;;;;;;;;;;6070319;29;20052;-69
2021/01/08 02:16:43;;;;;;;23.00;13.68;;;;;;;;;;6070599;29;20047;-72
2021/01/08 02:19:47;;;;;;;18.85;13.05;;;;;;;;;;6072497;29;20688;-67
2021/01/08 02:22:50;;;;;;;18.55;12.65;;;;;;;;;;6069108;29;20053;-67
2021/01/08 02:25:53;;;;;;;18.73;12.17;;;;;;;;;;6076847;29;20055;-68
2021/01/08 02:28:54;;;;;;;18.83;12.05;;;;;;;;;;6072890;29;20473;-73
2021/01/08 02:31:55;;;;;;;17.02;11.32;;;;;;;;;;6071675;29;20089;-67
2021/01/08 02:34:56;;;;;;;19.10;11.98;;;;;;;;;;6061455;29;20128;-70
2021/01/08 02:37:58;;;;;;;18.23;11.88;;;;;;;;;;6066489;29;20045;-66
2021/01/08 02:41:01;;;;;;;22.05;12.30;;;;;;;;;;6066733;29;20095;-70
2021/01/08 02:44:03;;;;;;;22.23;11.93;;;;;;;;;;6067623;29;20405;-72
2021/01/08 02:47:04;;;;;;;20.65;11.88;;;;;;;;;;6063655;29;20493;-73
2021/01/08 02:50:06;;;;;;;17.73;11.38;;;;;;;;;;6066167;29;20093;-68
2021/01/08 02:53:15;;;;;;;19.27;12.00;;;;;;;;;;6066788;29;20103;-67
2021/01/08 02:56:20;;;;;;;17.35;11.13;;;;;;;;;;6079859;29;20067;-68
2021/01/08 02:59:22;;;;;;;17.40;10.75;;;;;;;;;;6076239;29;20151;-67
2021/01/08 03:02:24;;;;;;;16.92;10.38;;;;;;;;;;6072089;29;20069;-68
2021/01/08 03:05:27;;;;;;;17.88;10.98;;;;;;;;;;6069549;29;20052;-69
2021/01/08 03:08:29;;;;;;;16.70;10.40;;;;;;;;;;6064089;29;20037;-67
2021/01/08 03:11:32;;;;;;;17.65;10.57;;;;;;;;;;6064824;29;20045;-70
2021/01/08 03:14:33;;;;;;;15.73;10.48;;;;;;;;;;6069035;29;20147;-69
2021/01/08 03:17:35;;;;;;;15.57;10.18;;;;;;;;;;6066769;29;20047;-66
2021/01/08 03:20:36;;;;;;;19.45;11.07;;;;;;;;;;6064084;29;20151;-67
2021/01/08 03:23:37;;;;;;;18.95;10.82;;;;;;;;;;6071099;29;20509;-66
2021/01/08 03:26:39;;;;;;;16.23;10.45;;;;;;;;;;6068424;29;20055;-68
2021/01/08 03:29:40;;;;;;;16.20;10.50;;;;;;;;;;6066792;29;20056;-67
2021/01/08 03:32:41;;;;;;;14.98;9.60;;;;;;;;;;6069810;29;20044;-67
2021/01/08 03:35:42;;;;;;;16.17;9.25;;;;;;;;;;6060499;29;20148;-67
2021/01/08 03:38:44;;;;;;;15.07;9.93;;;;;;;;;;6071446;29;20453;-69
2021/01/08 03:41:46;;;;;;;17.00;9.30;;;;;;;;;;6066407;29;20049;-67
2021/01/08 03:44:47;;;;;;;14.05;8.57;;;;;;;;;;6063683;29;20219;-67
2021/01/08 03:47:48;;;;;;;15.23;9.57;;;;;;;;;;6066102;29;20595;-65
2021/01/08 03:50:49;;;;;;;13.00;8.77;;;;;;;;;;6067424;29;20396;-66
2021/01/08 03:53:50;;;;;;;16.10;9.55;;;;;;;;;;6063511;29;20060;-66
2021/01/08 03:56:52;;;;;;;14.98;9.85;;;;;;;;;;6077107;29;20053;-70
2021/01/08 03:59:53;;;;;;;15.80;9.63;;;;;;;;;;6068921;29;20091;-69
2021/01/08 04:02:54;;;;;;;16.08;9.68;;;;;;;;;;6073724;29;20088;-67
2021/01/08 04:05:55;;;;;;;13.48;9.43;;;;;;;;;;6070619;29;20513;-66
2021/01/08 04:08:57;;;;;;;15.00;9.15;;;;;;;;;;6073060;29;20127;-65
2021/01/08 04:11:59;;;;;;;12.82;8.55;;;;;;;;;;6072107;29;20060;-67
2021/01/08 04:15:00;;;;;;;16.15;8.93;;;;;;;;;;6073385;29;20049;-69
2021/01/08 04:18:01;;;;;;;14.35;8.88;;;;;;;;;;6070278;29;22944;-65
2021/01/08 04:21:02;;;;;;;16.50;8.40;;;;;;;;;;6072593;29;20587;-69
2021/01/08 04:24:04;;;;;;;13.30;8.65;;;;;;;;;;6074252;29;20071;-65
2021/01/08 04:27:06;;;;;;;13.02;8.60;;;;;;;;;;6070098;29;20091;-73
2021/01/08 04:30:08;;;;;;;18.63;8.05;;;;;;;;;;6069882;29;20511;-66
2021/01/08 04:33:09;;;;;;;16.27;8.18;;;;;;;;;;6067556;29;20057;-70
2021/01/08 04:36:10;;;;;;;12.63;8.20;;;;;;;;;;6075562;29;20774;-66
2021/01/08 04:39:11;;;;;;;15.90;8.23;;;;;;;;;;6072244;29;20068;-65
2021/01/08 04:42:13;;;;;;;12.45;7.95;;;;;;;;;;6075984;29;20136;-68
2021/01/08 04:45:14;;;;;;;12.07;7.38;;;;;;;;;;6075320;29;20057;-66
2021/01/08 04:48:16;;;;;;;12.20;7.68;;;;;;;;;;6067242;29;20061;-68
2021/01/08 04:51:17;;;;;;;11.77;7.38;;;;;;;;;;6064534;29;20072;-67
2021/01/08 04:54:18;;;;;;;11.55;7.80;;;;;;;;;;6057319;29;20511;-70
2021/01/08 04:57:23;;;;;;;11.52;7.70;;;;;;;;;;6077002;29;20100;-68
2021/01/08 05:00:24;;;;;;;10.77;7.30;;;;;;;;;;6071048;29;20459;-67
2021/01/08 05:03:26;;;;;;;12.27;7.45;;;;;;;;;;6074514;29;20460;-68
2021/01/08 05:06:27;;;;;;;11.18;8.00;;;;;;;;;;6071271;29;20132;-71
2021/01/08 05:09:28;;;;;;;11.73;7.68;;;;;;;;;;6073633;29;20516;-67
2021/01/08 05:12:40;;;;;;;17.27;8.35;;;;;;;;;;6069297;29;20053;-77
2021/01/08 05:15:50;;;;;;;12.63;7.55;;;;;;;;;;6068740;29;20045;-71
2021/01/08 05:18:52;;;;;;;12.45;7.50;;;;;;;;;;6068459;29;20579;-72
2021/01/08 05:21:53;;;;;;;11.45;7.57;;;;;;;;;;6071637;29;20056;-69
2021/01/08 05:25:00;;;;;;;14.50;7.90;;;;;;;;;;6070997;29;20087;-68
2021/01/08 05:28:02;;;;;;;12.80;7.40;;;;;;;;;;6065703;29;20052;-70
2021/01/08 05:31:08;;;;;;;14.27;7.78;;;;;;;;;;6068859;29;20052;-68
2021/01/08 05:34:09;;;;;;;12.52;7.63;;;;;;;;;;6071276;29;20048;-71
2021/01/08 05:37:14;;;;;;;13.40;7.30;;;;;;;;;;6068341;29;20104;-70
2021/01/08 05:40:15;;;;;;;12.50;6.93;;;;;;;;;;6075125;29;20139;-68
2021/01/08 05:43:17;;;;;;;15.85;7.35;;;;;;;;;;6073929;29;20049;-67
2021/01/08 05:46:20;;;;;;;11.95;7.35;;;;;;;;;;6068556;29;20163;-67
2021/01/08 05:49:21;;;;;;;13.57;7.43;;;;;;;;;;6067124;29;20056;-71
2021/01/08 05:52:23;;;;;;;10.70;7.50;;;;;;;;;;6066656;29;20052;-66
2021/01/08 05:55:26;;;;;;;13.27;7.07;;;;;;;;;;6068510;29;20087;-68
2021/01/08 05:58:28;;;;;;;15.70;7.78;;;;;;;;;;6069727;29;20055;-70
2021/01/08 06:01:29;;;;;;;15.52;6.90;;;;;;;;;;6071301;29;20048;-68
2021/01/08 06:04:30;;;;;;;10.88;6.32;;;;;;;;;;6062384;29;20057;-69
2021/01/08 06:07:36;;;;;;;11.30;6.85;;;;;;;;;;6067713;29;20132;-66
2021/01/08 06:10:37;;;;;;;15.68;7.05;;;;;;;;;;6063989;29;20083;-69
2021/01/08 06:13:39;;;;;;;13.40;6.63;;;;;;;;;;6070107;29;20045;-69
2021/01/08 06:16:43;;;;;;;11.35;7.32;;;;;;;;;;6075597;29;20091;-69
2021/01/08 06:19:46;;;;;;;13.20;7.50;;;;;;;;;;6068373;29;20092;-69
2021/01/08 06:22:47;;;;;;;12.77;7.60;;;;;;;;;;6067943;29;20492;-67
2021/01/08 06:25:48;;;;;;;11.43;7.13;;;;;;;;;;6063833;29;20166;-68
2021/01/08 06:28:51;;;;;;;17.98;8.55;;;;;;;;;;6063034;29;20062;-69
2021/01/08 06:31:52;;;;;;;16.58;8.88;;;;;;;;;;6064130;29;20044;-68
2021/01/08 06:34:54;;;;;;;15.15;8.82;;;;;;;;;;6063073;29;20044;-68
2021/01/08 06:37:59;;;;;;;15.32;9.30;;;;;;;;;;6061446;29;20059;-72
2021/01/08 06:41:03;;;;;;;15.88;8.98;;;;;;;;;;6060690;29;20060;-69
2021/01/08 06:44:06;;;;;;;17.30;10.15;;;;;;;;;;6068994;29;20053;-71
2021/01/08 06:47:07;;;;;;;17.85;9.40;;;;;;;;;;6071141;29;20141;-70
2021/01/08 06:50:15;;;;;;;14.70;9.18;;;;;;;;;;6065421;29;20063;-71
2021/01/08 06:53:17;;;;;;;16.20;9.27;;;;;;;;;;6064223;29;20067;-70
2021/01/08 06:56:27;;;;;;;17.25;9.75;;;;;;;;;;6043046;29;20127;-70
2021/01/08 06:59:32;;;;;;;15.80;9.32;;;;;;;;;;6065655;29;20484;-69
2021/01/08 07:02:34;;;;;;;16.08;9.65;;;;;;;;;;6062522;29;20041;-70
2021/01/08 07:05:35;;;;;;;19.85;9.90;;;;;;;;;;6066510;29;20168;-69
2021/01/08 07:08:36;;;;;;;16.92;9.50;;;;;;;;;;6067532;29;20059;-67
2021/01/08 07:11:37;;;;;;;20.10;10.07;;;;;;;;;;6063570;29;20053;-71
2021/01/08 07:14:39;;;;;;;14.20;9.25;;;;;;;;;;6062469;29;20076;-71
2021/01/08 07:17:41;;;;;;;15.57;9.60;;;;;;;;;;6076661;29;20502;-70
2021/01/08 07:20:51;;;;;;;19.42;9.77;;;;;;;;;;6065621;29;20108;-71
2021/01/08 07:23:53;;;;;;;15.73;10.05;;;;;;;;;;6063944;29;20066;-70
2021/01/08 07:26:54;;;;;;;14.50;10.02;;;;;;;;;;6039274;29;20054;-70
2021/01/08 07:29:57;;;;;;;18.65;10.75;;;;;;;;;;6066131;29;20040;-69
2021/01/08 07:32:58;;;;;;;19.55;10.63;;;;;;;;;;6067884;29;20063;-70
2021/01/08 07:36:18;;;;;;;14.50;10.13;;;;;;;;;;6064029;29;20481;-69
2021/01/08 07:39:38;;;;;;;17.08;10.05;;;;;;;;;;6062624;29;20135;-69
2021/01/08 07:42:39;;;;;;;17.02;10.93;;;;;;;;;;6062974;29;20092;-72
2021/01/08 07:45:51;;;;;;;19.55;12.27;;;;;;;;;;6059721;29;20096;-69
2021/01/08 07:48:53;;;;;;;18.75;12.52;;;;;;;;;;6071324;29;20053;-68
2021/01/08 07:51:54;;;;;;;20.35;12.88;;;;;;;;;;6062058;29;20052;-68
2021/01/08 07:54:55;;;;;;;17.75;12.30;;;;;;;;;;6069443;29;20549;-69
2021/01/08 07:58:06;;;;;;;21.88;14.02;;;;;;;;;;6072228;29;20151;-68
2021/01/08 08:01:09;;;;;;;22.10;13.13;;;;;;;;;;6068077;29;20153;-68
2021/01/08 08:04:10;;;;;;;18.17;12.88;;;;;;;;;;6065066;29;20182;-69
2021/01/08 08:07:11;;;;;;;21.10;12.98;;;;;;;;;;6066086;29;20196;-70
2021/01/08 08:10:13;;;;;;;19.88;12.05;;;;;;;;;;6065107;29;20061;-69
2021/01/08 08:13:15;;;;;;;18.80;12.27;;;;;;;;;;6065657;29;20056;-70
2021/01/08 08:16:17;;;;;;;18.90;11.68;;;;;;;;;;6067222;29;20099;-69
2021/01/08 08:19:18;;;;;;;17.33;11.32;;;;;;;;;;6068911;29;20052;-69
2021/01/08 08:22:34;;;;;;;16.73;11.95;;;;;;;;;;6064658;29;20063;-70
2021/01/08 08:25:35;;;;;;;18.48;10.98;;;;;;;;;;6065464;29;20054;-69
2021/01/08 08:28:36;;;;;;;17.85;11.88;;;;;;;;;;6071768;29;20052;-68
2021/01/08 08:31:39;;;;;;;16.92;11.68;;;;;;;;;;6068121;29;20053;-69
2021/01/08 08:34:41;;;;;;;17.63;12.77;;;;;;;;;;6068436;29;20083;-69
2021/01/08 08:37:49;;;;;;;14.65;9.23;;;;;;;;;;6073961;29;20059;-69
2021/01/08 08:40:50;;;;;;;13.27;8.40;;;;;;;;;;6065271;29;20053;-70
2021/01/08 08:43:59;;;;;;;15.02;10.25;;;;;;;;;;6065073;29;20056;-68
2021/01/08 08:47:01;;;;;;;20.23;10.95;;;;;;;;;;6060268;29;20056;-72
2021/01/08 08:50:06;;;;;;;18.95;11.65;;;;;;;;;;6059797;29;20053;-71
2021/01/08 08:53:11;;;;;;;18.92;11.25;;;;;;;;;;6072207;29;20048;-71
2021/01/08 08:56:12;;;;;;;15.23;11.35;;;;;;;;;;6070986;29;20053;-71
2021/01/08 08:59:13;;;;;;;18.60;12.38;;;;;;;;;;6065200;29;20112;-69
2021/01/08 09:02:25;;;;;;;17.67;11.88;;;;;;;;;;6066414;29;20119;-70
2021/01/08 09:05:33;;;;;;;17.60;12.02;;;;;;;;;;6063439;29;20182;-70
2021/01/08 09:08:36;;;;;;;20.38;13.88;;;;;;;;;;6061626;29;20063;-69
2021/01/08 09:11:42;;;;;;;19.73;13.95;;;;;;;;;;6062808;29;20076;-69
2021/01/08 09:14:44;;;;;;;19.33;14.00;;;;;;;;;;6065789;29;20056;-69
2021/01/08 09:17:49;;;;;;;20.35;13.93;;;;;;;;;;6062937;29;20052;-69
2021/01/08 09:20:53;;;;;;;18.30;13.45;;;;;;;;;;6065857;29;20108;-69
2021/01/08 09:23:55;;;;;;;18.58;13.95;;;;;;;;;;6069016;29;20056;-70
2021/01/08 09:26:59;;;;;;;17.30;13.50;;;;;;;;;;6064431;29;20496;-72
2021/01/08 09:30:06;;;;;;;16.85;11.88;;;;;;;;;;6072696;29;20044;-73
2021/01/08 09:33:13;;;;;;;14.70;10.63;;;;;;;;;;6059660;29;20049;-69
2021/01/08 09:36:15;;;;;;;11.93;9.20;;;;;;;;;;6058016;29;20067;-70
2021/01/08 09:39:17;;;;;;;15.25;8.80;;;;;;;;;;6075750;29;20045;-69
2021/01/08 09:42:18;;;;;;;13.70;9.70;;;;;;;;;;6076876;29;20057;-69
2021/01/08 09:45:21;;;;;;;15.25;9.80;;;;;;;;;;6078165;29;20080;-68
2021/01/08 09:48:23;;;;;;;14.52;10.55;;;;;;;;;;6074580;29;20053;-72
2021/01/08 09:51:24;;;;;;;12.68;9.85;;;;;;;;;;6077951;29;20077;-69
2021/01/08 09:54:25;;;;;;;11.38;8.35;;;;;;;;;;6069239;29;20164;-68
2021/01/08 09:57:27;;;;;;;13.63;7.97;;;;;;;;;;6061276;29;20068;-68
2021/01/08 10:00:30;;;;;;;11.35;7.78;;;;;;;;;;6061519;29;20053;-73
2021/01/08 10:03:32;;;;;;;10.40;7.32;;;;;;;;;;6061530;29;20067;-68
2021/01/08 10:06:33;;;;;;;9.93;7.43;;;;;;;;;;6065191;29;20068;-71
2021/01/08 10:09:47;;;;;;;11.70;8.43;;;;;;;;;;6061403;29;20088;-69
2021/01/08 10:12:50;;;;;;;13.18;8.55;;;;;;;;;;6063348;29;20040;-69
2021/01/08 10:15:53;;;;;;;10.77;8.18;;;;;;;;;;6060985;29;20057;-69
2021/01/08 10:19:03;;;;;;;11.77;7.93;;;;;;;;;;6065667;29;20052;-68
2021/01/08 10:22:05;;;;;;;8.65;7.20;;;;;;;;;;6068703;29;20144;-68
2021/01/08 10:25:21;;;;;;;8.40;5.97;;;;;;;;;;6065126;29;20727;-67
2021/01/08 10:28:24;;;;;;;8.68;7.00;;;;;;;;;;6068610;29;20088;-70
2021/01/08 10:31:25;;;;;;;7.90;5.75;;;;;;;;;;6067411;29;20043;-67
2021/01/08 10:34:27;;;;;;;12.93;6.65;;;;;;;;;;6070112;29;20389;-68
2021/01/08 10:37:28;;;;;;;9.70;7.97;;;;;;;;;;6056095;29;20168;-69
2021/01/08 10:40:30;;;;;;;8.88;7.30;;;;;;;;;;6055204;29;20479;-68
2021/01/08 10:43:32;;;;;;;7.85;6.78;;;;;;;;;;6071836;29;20552;-69
2021/01/08 10:46:33;;;;;;;9.50;6.65;;;;;;;;;;6069696;29;20097;-67
2021/01/08 10:49:35;;;;;;;8.93;7.05;;;;;;;;;;6066906;29;20104;-68
2021/01/08 10:52:36;;;;;;;10.50;8.52;;;;;;;;;;6065899;29;20697;-67
2021/01/08 10:55:37;;;;;;;10.77;9.23;;;;;;;;;;6067265;29;20408;-67
2021/01/08 10:58:39;;;;;;;12.70;8.75;;;;;;;;;;6061052;29;20556;-69
2021/01/08 11:01:40;;;;;;;11.13;9.60;;;;;;;;;;6068039;29;20052;-69
2021/01/08 11:04:43;;;;;;;9.73;8.00;;;;;;;;;;6065213;29;20488;-67
2021/01/08 11:07:44;;;;;;;9.20;8.00;;;;;;;;;;6070209;29;20052;-71
2021/01/08 11:10:45;;;;;;;11.85;8.50;;;;;;;;;;6065257;29;20063;-71
2021/01/08 11:13:46;;;;;;;12.10;8.50;;;;;;;;;;6065066;29;20064;-71
2021/01/08 11:16:47;;;;;;;10.55;8.40;;;;;;;;;;6066746;29;20124;-67
2021/01/08 11:19:49;;;;;;;11.48;8.77;;;;;;;;;;6060094;29;20139;-69
2021/01/08 11:22:50;;;;;;;8.48;7.55;;;;;;;;;;6065119;29;20056;-70
2021/01/08 11:25:52;;;;;;;10.18;8.93;;;;;;;;;;6064920;29;21684;-70
2021/01/08 11:28:53;;;;;;;8.65;7.40;;;;;;;;;;6066133;29;20499;-71
2021/01/08 11:31:54;;;;;;;8.27;7.38;;;;;;;;;;6064307;29;20069;-69
2021/01/08 11:34:56;;;;;;;8.23;7.35;;;;;;;;;;6069625;29;20437;-69
2021/01/08 11:37:57;;;;;;;9.40;7.32;;;;;;;;;;6066529;29;20147;-69
2021/01/08 11:40:58;;;;;;;11.20;8.10;;;;;;;;;;6070140;29;20376;-68
2021/01/08 11:43:59;;;;;;;8.90;7.60;;;;;;;;;;6068436;29;20467;-69
2021/01/08 11:47:00;;;;;;;11.63;8.18;;;;;;;;;;6071280;29;20408;-69
2021/01/08 11:50:03;;;;;;;12.32;7.53;;;;;;;;;;6059680;29;20469;-69
2021/01/08 11:53:04;;;;;;;8.43;7.45;;;;;;;;;;6069198;29;20045;-66
2021/01/08 11:56:05;;;;;;;8.60;7.20;;;;;;;;;;6069085;29;20053;-66
2021/01/08 11:59:06;;;;;;;10.18;7.38;;;;;;;;;;6067586;29;20092;-67
2021/01/08 12:02:07;;;;;;;10.75;6.95;;;;;;;;;;6067756;29;20045;-66
2021/01/08 12:05:11;;;;;;;10.05;7.07;;;;;;;;;;6068241;29;20560;-71
2021/01/08 12:08:11;;;;;;;;;;;;;;;;;;6075218;29;20058;-67
2021/01/08 12:11:15;;;;;;;6.90;6.10;;;;;;;;;;6070882;29;20599;-68
2021/01/08 12:14:16;;;;;;;6.80;6.07;;;;;;;;;;6070669;29;20057;-66
2021/01/08 12:17:17;;;;;;;10.35;6.00;;;;;;;;;;6066287;29;20049;-69
2021/01/08 12:20:19;;;;;;;8.98;6.25;;;;;;;;;;6054826;29;20059;-67
2021/01/08 12:23:20;;;;;;;8.63;6.70;;;;;;;;;;6065476;29;20472;-68
2021/01/08 12:26:24;;;;;;;9.48;7.10;;;;;;;;;;6071757;29;20139;-67
2021/01/08 12:29:26;;;;;;;8.35;6.95;;;;;;;;;;6067434;29;20052;-70
2021/01/08 12:32:27;;;;;;;10.00;6.82;;;;;;;;;;6072875;29;20076;-68
2021/01/08 12:35:29;;;;;;;8.50;7.20;;;;;;;;;;6072939;29;20052;-67
2021/01/08 12:38:31;;;;;;;8.13;6.68;;;;;;;;;;6073966;29;20045;-67
2021/01/08 12:41:33;;;;;;;8.48;6.90;;;;;;;;;;6070822;29;20056;-66
2021/01/08 12:44:34;;;;;;;10.55;7.10;;;;;;;;;;6066318;29;20120;-66
2021/01/08 12:47:35;;;;;;;9.27;7.10;;;;;;;;;;6066149;29;20119;-66
2021/01/08 12:50:37;;;;;;;11.30;7.43;;;;;;;;;;6069869;29;20087;-68
2021/01/08 12:53:38;;;;;;;9.80;6.78;;;;;;;;;;6060964;29;20337;-68
2021/01/08 12:56:39;;;;;;;10.95;7.15;;;;;;;;;;6067391;29;20076;-67
2021/01/08 12:59:42;;;;;;;9.10;7.75;;;;;;;;;;6071761;29;20049;-68
2021/01/08 13:02:43;;;;;;;11.23;7.55;;;;;;;;;;6067287;29;20056;-69
2021/01/08 13:05:48;;;;;;;8.65;6.97;;;;;;;;;;6068585;29;20083;-67
2021/01/08 13:08:49;;;;;;;10.98;7.35;;;;;;;;;;6071879;29;20060;-67
2021/01/08 13:11:50;;;;;;;10.63;7.57;;;;;;;;;;6070636;29;20048;-67
2021/01/08 13:14:51;;;;;;;8.90;6.72;;;;;;;;;;6070005;29;20496;-67
2021/01/08 13:17:52;;;;;;;9.73;7.68;;;;;;;;;;6042367;29;20056;-69
2021/01/08 13:20:54;;;;;;;11.65;7.18;;;;;;;;;;6070772;29;20442;-67
2021/01/08 13:23:55;;;;;;;9.05;7.65;;;;;;;;;;6072881;29;20056;-67
2021/01/08 13:26:56;;;;;;;9.27;7.50;;;;;;;;;;6071503;29;20068;-69
2021/01/08 13:29:57;;;;;;;15.32;7.72;;;;;;;;;;6072698;29;20068;-66
2021/01/08 13:32:58;;;;;;;9.45;7.35;;;;;;;;;;6068067;29;20509;-67
2021/01/08 13:36:00;;;;;;;11.75;7.47;;;;;;;;;;6065113;29;20048;-67
2021/01/08 13:39:01;;;;;;;9.00;7.43;;;;;;;;;;6069881;29;20811;-66
2021/01/08 13:42:04;;;;;;;11.07;7.68;;;;;;;;;;6068925;29;20074;-66
2021/01/08 13:45:06;;;;;;;8.38;7.47;;;;;;;;;;6065525;29;20044;-67
2021/01/08 13:48:07;;;;;;;8.48;7.13;;;;;;;;;;6064557;29;20063;-67
2021/01/08 13:51:16;;;;;;;9.85;7.53;;;;;;;;;;6065563;29;20063;-67
2021/01/08 13:54:17;;;;;;;13.13;7.47;;;;;;;;;;6071272;29;20151;-68
2021/01/08 13:57:19;;;;;;;12.43;7.30;;;;;;;;;;6066040;29;20044;-67
2021/01/08 14:00:20;;;;;;;9.20;7.70;;;;;;;;;;6068204;29;20108;-69
2021/01/08 14:03:21;;;;;;;10.48;7.30;;;;;;;;;;6063929;29;20127;-67
2021/01/08 14:06:26;;;;;;;9.00;7.80;;;;;;;;;;6065488;29;20854;-67
2021/01/08 14:09:27;;;;;;;10.02;7.55;;;;;;;;;;6061684;29;20036;-66
2021/01/08 14:12:28;;;;;;;11.95;8.15;;;;;;;;;;6070280;29;20045;-67
2021/01/08 14:15:30;;;;;;;11.73;7.53;;;;;;;;;;6061348;29;20086;-67
2021/01/08 14:18:31;;;;;;;10.65;7.97;;;;;;;;;;6063690;29;20448;-69
2021/01/08 14:21:33;;;;;;;11.52;7.35;;;;;;;;;;6062102;29;20055;-66
2021/01/08 14:24:34;;;;;;;10.55;7.90;;;;;;;;;;6063825;29;20136;-67
2021/01/08 14:27:35;;;;;;;10.25;7.65;;;;;;;;;;6062392;29;20041;-68
2021/01/08 14:30:36;;;;;;;12.80;8.18;;;;;;;;;;6063180;29;20381;-68
2021/01/08 14:33:37;;;;;;;9.63;7.70;;;;;;;;;;6060642;29;20041;-67
2021/01/08 14:36:40;;;;;;;11.38;7.43;;;;;;;;;;6060874;29;20045;-67
2021/01/08 14:39:41;;;;;;;10.40;7.53;;;;;;;;;;6063081;29;20055;-69
2021/01/08 14:42:42;;;;;;;11.65;8.00;;;;;;;;;;6061428;29;20048;-68
2021/01/08 14:52:25;;;;;;;10.55;8.60;;;;;;;;;;6306859;27;20855;-67
2021/01/08 14:55:26;;;;;;;14.38;8.35;;;;;;;;;;6278629;28;20136;-70
2021/01/08 14:58:27;;;;;;;9.70;7.55;;;;;;;;;;6277589;28;20183;-67
2021/01/08 15:01:28;;;;;;;8.70;7.10;;;;;;;;;;6280674;28;20094;-67
2021/01/08 15:04:29;;;;;;;12.52;8.18;;;;;;;;;;6281503;28;20540;-69
2021/01/08 15:07:31;;;;;;;11.95;8.25;;;;;;;;;;6277908;28;20183;-71
2021/01/08 15:10:32;;;;;;;12.40;8.65;;;;;;;;;;6276192;28;20136;-68
2021/01/08 15:13:33;;;;;;;12.10;8.93;;;;;;;;;;6281126;28;20447;-69
2021/01/08 15:16:34;;;;;;;10.98;9.15;;;;;;;;;;6273812;28;20052;-67
2021/01/08 15:19:35;;;;;;;14.85;10.20;;;;;;;;;;6260185;28;20054;-66
2021/01/08 15:22:37;;;;;;;13.50;9.40;;;;;;;;;;6257020;28;20049;-67
2021/01/08 15:25:38;;;;;;;13.85;9.48;;;;;;;;;;6249546;28;20160;-66
2021/01/08 15:28:39;;;;;;;13.07;9.68;;;;;;;;;;6250968;28;20500;-68
2021/01/08 15:31:40;;;;;;;13.02;9.88;;;;;;;;;;6245737;28;20114;-67
2021/01/08 15:34:41;;;;;;;14.50;9.75;;;;;;;;;;6277911;28;20048;-70
2021/01/08 15:37:43;;;;;;;11.65;9.82;;;;;;;;;;6257786;28;20093;-68
2021/01/08 15:40:44;;;;;;;14.88;10.65;;;;;;;;;;6276494;28;20127;-68
2021/01/08 15:43:46;;;;;;;16.67;10.60;;;;;;;;;;6262467;28;20047;-70
2021/01/08 15:46:48;;;;;;;16.40;10.63;;;;;;;;;;6272353;28;20441;-69
2021/01/08 15:49:49;;;;;;;15.85;10.80;;;;;;;;;;6268012;28;20069;-68
2021/01/08 15:52:51;;;;;;;12.57;9.68;;;;;;;;;;6280277;28;20458;-68
2021/01/08 15:55:52;;;;;;;16.05;9.90;;;;;;;;;;6267657;28;20068;-69
2021/01/08 15:58:53;;;;;;;14.82;10.20;;;;;;;;;;6271930;28;20344;-68
2021/01/08 16:01:55;;;;;;;16.10;10.48;;;;;;;;;;6266383;28;20079;-68
2021/01/08 16:04:56;;;;;;;18.38;11.13;;;;;;;;;;6256456;28;20479;-67
2021/01/08 16:07:59;;;;;;;12.38;10.63;;;;;;;;;;6265836;28;20094;-67
2021/01/08 16:11:00;;;;;;;14.13;11.05;;;;;;;;;;6255699;28;20045;-68
2021/01/08 16:14:01;;;;;;;14.57;10.85;;;;;;;;;;6248827;28;20053;-70
2021/01/08 16:17:02;;;;;;;17.20;11.15;;;;;;;;;;6256055;28;20692;-67
2021/01/08 16:20:05;;;;;;;13.98;9.82;;;;;;;;;;6255670;28;20095;-67
2021/01/08 16:23:07;;;;;;;14.75;10.38;;;;;;;;;;6253054;28;20418;-69
2021/01/08 16:26:08;;;;;;;16.00;10.90;;;;;;;;;;6244806;28;20064;-68
2021/01/08 16:29:09;;;;;;;29.00;15.82;;;;;;;;;;6255325;28;20079;-68
2021/01/08 16:32:11;;;;;;;16.02;10.88;;;;;;;;;;6255602;28;20470;-68
2021/01/08 16:35:14;;;;;;;15.40;10.38;;;;;;;;;;6254692;28;20045;-67
2021/01/08 16:38:16;;;;;;;17.83;10.73;;;;;;;;;;6248158;28;20519;-68
2021/01/08 16:41:17;;;;;;;21.23;11.25;;;;;;;;;;6255221;28;20503;-67
2021/01/08 16:44:18;;;;;;;16.83;10.65;;;;;;;;;;6251141;28;20068;-69
2021/01/08 16:47:19;;;;;;;15.43;11.48;;;;;;;;;;6253836;28;20044;-70
2021/01/08 16:50:20;;;;;;;15.90;10.93;;;;;;;;;;6262755;28;20137;-68
2021/01/08 16:53:22;;;;;;;17.10;10.98;;;;;;;;;;6247333;28;20903;-67
2021/01/08 16:56:23;;;;;;;18.40;10.70;;;;;;;;;;6247986;28;20053;-67
2021/01/08 16:59:25;;;;;;;16.08;11.82;;;;;;;;;;6252455;28;20475;-68
2021/01/08 17:02:28;;;;;;;16.20;11.13;;;;;;;;;;6250511;28;20046;-67
2021/01/08 17:05:29;;;;;;;17.80;10.95;;;;;;;;;;6253106;28;20064;-69
2021/01/08 17:08:31;;;;;;;17.92;11.55;;;;;;;;;;6255521;28;20057;-67
2021/01/08 17:11:32;;;;;;;18.80;11.32;;;;;;;;;;6251314;28;20056;-67
2021/01/08 17:14:33;;;;;;;18.80;11.98;;;;;;;;;;6251376;28;20096;-69
2021/01/08 17:17:34;;;;;;;17.30;11.80;;;;;;;;;;6252780;28;20156;-66
2021/01/08 17:20:35;;;;;;;24.98;12.52;;;;;;;;;;6256399;28;20070;-68
2021/01/08 17:23:37;;;;;;;19.33;12.50;;;;;;;;;;6257001;28;20129;-67
2021/01/08 17:26:39;;;;;;;18.00;11.77;;;;;;;;;;6265121;28;20625;-66
2021/01/08 17:29:40;;;;;;;17.80;12.75;;;;;;;;;;6260884;28;20435;-68
2021/01/08 17:32:42;;;;;;;18.83;12.38;;;;;;;;;;6248826;28;20051;-69
2021/01/08 17:35:43;;;;;;;19.73;12.65;;;;;;;;;;6249052;28;20048;-66
2021/01/08 17:38:45;;;;;;;19.23;13.02;;;;;;;;;;6248013;28;20222;-66
2021/01/08 17:41:46;;;;;;;21.88;12.45;;;;;;;;;;6243677;28;20049;-66
2021/01/08 17:44:47;;;;;;;21.65;13.98;;;;;;;;;;6255146;28;20088;-66
2021/01/08 17:47:48;;;;;;;23.13;14.45;;;;;;;;;;6259350;28;20049;-65
2021/01/08 17:50:50;;;;;;;21.02;13.65;;;;;;;;;;6254793;28;20750;-66
2021/01/08 17:53:52;;;;;;;20.52;12.70;;;;;;;;;;6243242;28;20052;-67
2021/01/08 17:56:53;;;;;;;20.02;12.75;;;;;;;;;;6250992;28;20106;-67